createdAt,value
2019-05-26T00:00:17.788Z,84.25
2019-05-26T00:02:50.338Z,85.42
2019-05-26T00:05:21.930Z,86.48
2019-05-26T00:07:54.736Z,86.95
2019-05-26T00:10:28.473Z,86.49
2019-05-26T00:13:00.553Z,86.75
2019-05-26T00:15:32.337Z,86.94
2019-05-26T00:18:03.998Z,86.98
2019-05-26T00:20:35.629Z,87.42
2019-05-26T00:23:07.599Z,87.66
2019-05-26T00:25:39.779Z,87.44
2019-05-26T00:28:11.665Z,87.12
2019-05-26T00:30:43.301Z,87.12
2019-05-26T00:33:15.350Z,87.50
2019-05-26T00:35:47.241Z,87.78
2019-05-26T00:38:19.319Z,88.38
2019-05-26T00:40:51.460Z,89.72
2019-05-26T00:43:23.060Z,90.58
2019-05-26T00:45:54.813Z,91.26
2019-05-26T00:48:26.565Z,91.86
2019-05-26T00:50:58.964Z,91.96
2019-05-26T00:53:31.644Z,91.40
2019-05-26T00:56:03.564Z,91.13
2019-05-26T00:58:35.191Z,91.52
2019-05-26T01:01:07.638Z,92.29
2019-05-26T01:03:43.126Z,93.18
2019-05-26T01:06:14.885Z,94.00
2019-05-26T01:08:46.914Z,94.42
2019-05-26T01:11:18.632Z,94.25
2019-05-26T01:13:50.334Z,93.52
2019-05-26T01:16:23.380Z,93.00
2019-05-26T01:18:55.762Z,93.61
2019-05-26T01:21:30.453Z,93.29
2019-05-26T01:24:03.125Z,91.74
2019-05-26T01:26:36.106Z,91.89
2019-05-26T01:29:08.858Z,92.67
2019-05-26T01:31:40.678Z,93.50
2019-05-26T01:34:12.766Z,93.71
2019-05-26T01:36:44.899Z,94.37
2019-05-26T01:39:16.783Z,94.10
2019-05-26T01:41:48.656Z,95.73
2019-05-26T01:44:20.585Z,96.86
2019-05-26T01:46:53.365Z,96.67
2019-05-26T01:49:25.272Z,96.59
2019-05-26T01:51:56.910Z,96.61
2019-05-26T01:54:28.513Z,95.42
2019-05-26T01:57:00.200Z,95.00
2019-05-26T01:59:32.014Z,94.15
2019-05-26T02:02:03.822Z,93.87
2019-05-26T02:04:35.445Z,93.55
2019-05-26T02:07:07.381Z,93.87
2019-05-26T02:09:39.997Z,92.36
2019-05-26T02:12:13.769Z,92.73
2019-05-26T02:14:45.504Z,92.89
2019-05-26T02:17:17.560Z,93.53
2019-05-26T02:19:49.427Z,94.19
2019-05-26T02:22:22.895Z,94.03
2019-05-26T02:24:54.783Z,94.02
2019-05-26T02:27:26.933Z,93.79
2019-05-26T02:29:58.761Z,93.21
2019-05-26T02:32:31.744Z,93.53
2019-05-26T02:35:03.866Z,94.01
2019-05-26T02:37:36.111Z,94.72
2019-05-26T02:40:08.852Z,95.04
2019-05-26T02:42:40.919Z,95.36
2019-05-26T02:45:15.974Z,94.94
2019-05-26T02:47:47.701Z,94.57
2019-05-26T02:50:21.856Z,94.31
2019-05-26T02:52:53.450Z,93.93
2019-05-26T02:55:27.033Z,93.97
2019-05-26T02:57:58.705Z,94.28
2019-05-26T03:00:41.368Z,94.76
2019-05-26T03:03:15.241Z,95.39
2019-05-26T03:05:47.532Z,95.64
2019-05-26T03:08:21.222Z,95.25
2019-05-26T03:10:54.677Z,95.42
2019-05-26T03:13:28.424Z,94.79
2019-05-26T03:16:02.650Z,94.17
2019-05-26T03:18:39.201Z,93.78
2019-05-26T03:21:13.093Z,93.84
2019-05-26T03:23:47.761Z,94.01
2019-05-26T03:26:21.205Z,94.55
2019-05-26T03:28:53.104Z,94.33
2019-05-26T03:31:24.862Z,93.86
2019-05-26T03:33:56.879Z,93.55
2019-05-26T03:36:28.983Z,93.46
2019-05-26T03:39:00.894Z,93.19
2019-05-26T03:41:34.771Z,93.01
2019-05-26T03:44:06.282Z,93.14
2019-05-26T03:46:38.936Z,93.33
2019-05-26T03:49:11.330Z,94.46
2019-05-26T03:51:44.013Z,94.94
2019-05-26T03:54:16.461Z,94.86
2019-05-26T03:56:48.012Z,94.83
2019-05-26T03:59:20.932Z,94.79
2019-05-26T04:01:57.664Z,94.37
2019-05-26T04:04:27.495Z,93.98
2019-05-26T04:06:59.546Z,93.62
2019-05-26T04:09:31.545Z,93.53
2019-05-26T04:12:04.474Z,93.47
2019-05-26T04:14:36.087Z,93.16
2019-05-26T04:17:08.137Z,93.12
2019-05-26T04:19:39.872Z,93.32
2019-05-26T04:22:11.597Z,93.19
2019-05-26T04:24:44.079Z,93.03
2019-05-26T04:27:15.788Z,92.90
2019-05-26T04:29:47.467Z,92.69
2019-05-26T04:32:19.332Z,92.63
2019-05-26T04:34:52.119Z,92.26
2019-05-26T04:37:24.389Z,92.00
2019-05-26T04:39:56.126Z,92.55
2019-05-26T04:42:27.779Z,92.78
2019-05-26T04:44:59.609Z,91.85
2019-05-26T04:47:31.670Z,91.95
2019-05-26T04:50:03.766Z,91.31
2019-05-26T04:52:37.386Z,91.43
2019-05-26T04:55:09.192Z,91.60
2019-05-26T04:57:42.682Z,91.83
2019-05-26T05:00:15.213Z,91.83
2019-05-26T05:02:46.888Z,92.17
2019-05-26T05:05:20.015Z,92.79
2019-05-26T05:07:53.362Z,93.76
2019-05-26T05:10:41.374Z,94.74
2019-05-26T05:13:00.792Z,95.67
2019-05-26T05:15:32.443Z,95.29
2019-05-26T05:18:04.248Z,95.94
2019-05-26T05:20:35.795Z,96.18
2019-05-26T05:23:09.029Z,96.50
2019-05-26T05:25:40.802Z,96.13
2019-05-26T05:28:13.682Z,95.25
2019-05-26T05:30:46.767Z,95.26
2019-05-26T05:33:18.437Z,95.22
2019-05-26T05:35:50.593Z,94.72
2019-05-26T05:38:23.185Z,94.41
2019-05-26T05:40:59.955Z,94.98
2019-05-26T05:43:30.549Z,95.00
2019-05-26T05:46:03.553Z,94.42
2019-05-26T05:48:35.118Z,94.52
2019-05-26T05:51:07.112Z,94.96
2019-05-26T05:53:38.974Z,92.71
2019-05-26T05:56:11.990Z,92.22
2019-05-26T05:58:44.721Z,91.82
2019-05-26T06:01:16.738Z,92.54
2019-05-26T06:03:49.417Z,90.68
2019-05-26T06:06:22.969Z,90.19
2019-05-26T06:08:55.663Z,90.21
2019-05-26T06:11:28.714Z,90.42
2019-05-26T06:14:01.442Z,90.57
2019-05-26T06:16:33.584Z,89.60
2019-05-26T06:19:06.079Z,89.81
2019-05-26T06:21:37.893Z,87.95
2019-05-26T06:24:09.451Z,88.23
2019-05-26T06:26:41.181Z,87.02
2019-05-26T06:29:12.881Z,87.99
2019-05-26T06:31:45.832Z,87.36
2019-05-26T06:34:18.047Z,87.56
2019-05-26T06:36:49.710Z,85.55
2019-05-26T06:39:21.555Z,85.81
2019-05-26T06:41:53.325Z,85.37
2019-05-26T06:44:24.986Z,84.29
2019-05-26T06:46:57.566Z,86.09
2019-05-26T06:49:29.517Z,83.30
2019-05-26T06:52:02.032Z,82.75
2019-05-26T06:54:33.822Z,83.54
2019-05-26T06:57:07.766Z,81.18
2019-05-26T06:59:40.064Z,81.62
2019-05-26T07:02:14.603Z,81.37
2019-05-26T07:04:46.585Z,80.61
2019-05-26T07:07:18.397Z,81.92
2019-05-26T07:09:51.533Z,79.46
2019-05-26T07:12:23.344Z,78.29
2019-05-26T07:14:56.911Z,79.02
2019-05-26T07:17:28.672Z,77.00
2019-05-26T07:20:00.891Z,76.76
2019-05-26T07:22:32.769Z,78.27
2019-05-26T07:25:04.879Z,77.48
2019-05-26T07:27:37.159Z,76.94
2019-05-26T07:30:09.374Z,72.11
2019-05-26T07:32:41.745Z,70.84
2019-05-26T07:35:13.713Z,71.92
2019-05-26T07:37:45.403Z,71.33
2019-05-26T07:40:19.573Z,71.41
2019-05-26T07:42:51.377Z,72.77
2019-05-26T07:45:23.175Z,72.44
2019-05-26T07:47:55.812Z,71.62
2019-05-26T07:50:28.088Z,72.13
2019-05-26T07:53:02.141Z,71.93
2019-05-26T07:55:34.298Z,71.01
2019-05-26T07:58:07.226Z,71.57
2019-05-26T08:00:39.715Z,70.69
2019-05-26T08:03:12.438Z,70.38
2019-05-26T08:05:45.686Z,70.54
2019-05-26T08:08:18.894Z,69.68
2019-05-26T08:10:50.716Z,70.08
2019-05-26T08:13:22.449Z,68.89
2019-05-26T08:15:55.008Z,67.78
2019-05-26T08:18:26.689Z,68.76
2019-05-26T08:20:58.522Z,67.17
2019-05-26T08:23:30.177Z,67.87
2019-05-26T08:26:02.569Z,64.91
2019-05-26T08:28:34.076Z,66.73
2019-05-26T08:31:05.899Z,65.00
2019-05-26T08:33:37.568Z,65.74
2019-05-26T08:36:09.382Z,65.97
2019-05-26T08:38:42.240Z,62.48
2019-05-26T08:41:15.973Z,60.93
2019-05-26T08:43:47.760Z,61.82
2019-05-26T08:46:20.342Z,61.59
2019-05-26T08:48:53.507Z,58.88
2019-05-26T08:51:26.690Z,59.15
2019-05-26T08:54:01.614Z,58.83
2019-05-26T08:56:34.157Z,58.76
2019-05-26T08:59:07.531Z,59.16
2019-05-26T09:01:41.065Z,58.04
2019-05-26T09:04:14.735Z,57.27
2019-05-26T09:06:46.465Z,56.53
2019-05-26T09:09:18.498Z,58.14
2019-05-26T09:11:50.285Z,60.20
2019-05-26T09:14:25.403Z,57.85
2019-05-26T09:16:55.521Z,58.94
2019-05-26T09:19:27.177Z,58.70
2019-05-26T09:21:59.893Z,59.11
2019-05-26T09:24:31.678Z,59.56
2019-05-26T09:27:03.519Z,58.75
2019-05-26T09:29:35.105Z,57.48
2019-05-26T09:32:06.770Z,57.66
2019-05-26T09:34:38.374Z,58.40
2019-05-26T09:37:11.964Z,57.69
2019-05-26T09:39:45.760Z,57.87
2019-05-26T09:42:22.323Z,57.32
2019-05-26T09:44:54.513Z,56.51
2019-05-26T09:47:28.571Z,57.82
2019-05-26T09:50:02.611Z,55.95
2019-05-26T09:52:35.312Z,56.63
2019-05-26T09:55:07.832Z,56.27
2019-05-26T09:57:39.618Z,57.23
2019-05-26T10:00:16.023Z,56.73
2019-05-26T10:02:46.680Z,55.63
2019-05-26T10:05:18.438Z,54.79
2019-05-26T10:07:51.800Z,53.87
2019-05-26T10:10:23.779Z,54.21
2019-05-26T10:12:55.746Z,54.63
2019-05-26T10:15:27.759Z,56.31
2019-05-26T10:18:00.304Z,54.21
2019-05-26T10:20:32.086Z,54.76
2019-05-26T10:23:03.965Z,52.44
2019-05-26T10:25:35.684Z,53.13
2019-05-26T10:28:07.809Z,53.79
2019-05-26T10:30:39.598Z,53.92
2019-05-26T10:33:11.316Z,55.54
2019-05-26T10:35:42.930Z,55.24
2019-05-26T10:38:15.395Z,54.93
2019-05-26T10:40:47.984Z,54.09
2019-05-26T10:43:22.041Z,54.36
2019-05-26T10:45:54.727Z,54.05
2019-05-26T10:48:28.524Z,56.56
2019-05-26T10:51:00.140Z,55.62
2019-05-26T10:53:32.972Z,55.19
2019-05-26T10:56:04.830Z,54.15
2019-05-26T10:58:36.358Z,53.49
2019-05-26T11:01:10.205Z,53.28
2019-05-26T11:03:42.189Z,53.73
2019-05-26T11:06:13.939Z,53.29
2019-05-26T11:08:45.694Z,54.69
2019-05-26T11:11:17.937Z,55.20
2019-05-26T11:14:01.795Z,54.18
2019-05-26T11:16:25.027Z,53.23
2019-05-26T11:18:58.333Z,55.62
2019-05-26T11:21:30.103Z,54.22
2019-05-26T11:24:03.029Z,54.96
2019-05-26T11:26:34.628Z,54.07
2019-05-26T11:29:06.705Z,54.07
2019-05-26T11:31:38.345Z,54.08
2019-05-26T11:34:10.115Z,51.21
2019-05-26T11:36:42.466Z,49.60
2019-05-26T11:39:15.242Z,49.04
2019-05-26T11:41:54.636Z,49.76
2019-05-26T11:44:22.231Z,49.72
2019-05-26T11:46:54.849Z,51.06
2019-05-26T11:49:27.498Z,51.41
2019-05-26T11:51:59.448Z,49.45
2019-05-26T11:54:34.363Z,51.25
2019-05-26T11:57:04.686Z,49.18
2019-05-26T11:59:36.426Z,49.54
2019-05-26T12:02:08.297Z,50.70
2019-05-26T12:04:39.993Z,47.64
2019-05-26T12:07:12.139Z,45.20
2019-05-26T12:09:43.940Z,45.12
2019-05-26T12:12:15.819Z,44.79
2019-05-26T12:14:47.529Z,44.09
2019-05-26T12:17:19.404Z,45.00
2019-05-26T12:19:51.125Z,43.05
2019-05-26T12:22:23.007Z,44.54
2019-05-26T12:24:54.748Z,46.72
2019-05-26T12:27:26.923Z,45.41
2019-05-26T12:29:59.815Z,44.03
2019-05-26T12:32:33.536Z,45.36
2019-05-26T12:35:07.314Z,43.59
2019-05-26T12:37:38.991Z,40.45
2019-05-26T12:40:13.505Z,39.90
2019-05-26T12:42:45.255Z,39.90
2019-05-26T12:45:21.839Z,42.05
2019-05-26T12:47:54.242Z,40.97
2019-05-26T12:50:26.136Z,42.33
2019-05-26T12:52:57.714Z,44.95
2019-05-26T12:55:32.598Z,42.97
2019-05-26T12:58:04.743Z,44.26
2019-05-26T13:00:48.100Z,43.15
2019-05-26T13:03:09.979Z,42.90
2019-05-26T13:05:43.420Z,42.56
2019-05-26T13:08:15.181Z,41.27
2019-05-26T13:10:46.804Z,42.08
2019-05-26T13:13:18.818Z,42.80
2019-05-26T13:15:50.487Z,42.24
2019-05-26T13:18:22.609Z,41.31
2019-05-26T13:20:54.641Z,40.95
2019-05-26T13:23:26.410Z,41.62
2019-05-26T13:25:59.043Z,41.07
2019-05-26T13:28:33.249Z,40.68
2019-05-26T13:31:06.883Z,39.58
2019-05-26T13:33:38.808Z,40.18
2019-05-26T13:36:10.434Z,40.56
2019-05-26T13:38:42.600Z,38.90
2019-05-26T13:41:14.287Z,37.80
2019-05-26T13:43:45.972Z,39.16
2019-05-26T13:46:19.293Z,38.90
2019-05-26T13:48:51.526Z,37.64
2019-05-26T13:51:23.421Z,36.14
2019-05-26T13:53:55.188Z,38.65
2019-05-26T13:56:26.722Z,39.74
2019-05-26T13:59:00.314Z,38.77
2019-05-26T14:01:32.051Z,38.77
2019-05-26T14:04:03.912Z,38.63
2019-05-26T14:06:35.534Z,39.29
2019-05-26T14:09:10.220Z,40.14
2019-05-26T14:11:41.930Z,37.58
2019-05-26T14:14:13.787Z,37.00
2019-05-26T14:16:46.995Z,37.77
2019-05-26T14:19:21.276Z,36.18
2019-05-26T14:21:52.961Z,38.40
2019-05-26T14:24:25.554Z,36.45
2019-05-26T14:26:58.526Z,35.42
2019-05-26T14:29:31.038Z,36.42
2019-05-26T14:32:02.763Z,36.83
2019-05-26T14:34:36.072Z,34.60
2019-05-26T14:37:07.848Z,34.21
2019-05-26T14:39:39.413Z,38.66
2019-05-26T14:42:12.351Z,36.99
2019-05-26T18:41:43.509Z,50.20
2019-05-26T18:44:15.723Z,50.41
2019-05-26T18:46:47.732Z,50.81
2019-05-26T18:49:19.525Z,51.19
2019-05-26T18:51:51.198Z,51.49
2019-05-26T18:54:23.079Z,51.65
2019-05-26T18:56:54.622Z,51.87
2019-05-26T18:59:26.758Z,52.14
2019-05-26T19:01:58.519Z,52.22
2019-05-26T19:04:30.333Z,52.52
2019-05-26T19:07:02.331Z,52.50
2019-05-26T19:11:18.180Z,53.10
2019-05-26T19:13:50.012Z,53.12
2019-05-26T19:16:22.607Z,53.33
2019-05-26T19:18:56.224Z,53.60
2019-05-26T19:21:28.146Z,54.02
2019-05-26T19:24:00.292Z,54.26
2019-05-26T19:26:32.104Z,54.38
2019-05-26T19:29:06.089Z,54.71
2019-05-26T19:31:38.526Z,54.99
2019-05-26T19:34:11.580Z,55.01
2019-05-26T19:36:44.278Z,55.12
2019-05-26T19:39:16.256Z,55.38
2019-05-26T19:41:48.257Z,55.44
2019-05-26T19:44:20.229Z,55.77
2019-05-26T19:46:52.941Z,55.92
2019-05-26T19:49:25.471Z,56.19
2019-05-26T19:51:57.483Z,56.45
2019-05-26T19:54:29.203Z,56.94
2019-05-26T19:57:02.049Z,57.85
2019-05-26T19:59:34.293Z,57.78
2019-05-26T20:02:17.861Z,58.98
2019-05-26T20:04:40.254Z,59.02
2019-05-26T20:07:12.200Z,58.81
2019-05-26T20:09:44.140Z,58.76
2019-05-26T20:12:16.454Z,58.86
2019-05-26T20:14:49.585Z,59.30
2019-05-26T20:17:21.938Z,59.73
2019-05-26T20:19:54.183Z,59.66
2019-05-26T20:22:28.848Z,60.01
2019-05-26T20:25:02.281Z,60.28
2019-05-26T20:27:35.858Z,60.20
2019-05-26T20:30:09.291Z,60.31
2019-05-26T20:32:41.611Z,60.23
2019-05-26T20:35:14.203Z,60.28
2019-05-26T20:37:49.197Z,60.10
2019-05-26T20:40:21.614Z,60.25
2019-05-26T20:42:53.358Z,60.40
2019-05-26T20:45:25.363Z,60.63
2019-05-26T20:47:56.983Z,60.54
2019-05-26T20:50:30.246Z,60.36
2019-05-26T20:53:03.044Z,60.37
2019-05-26T20:55:34.961Z,60.79
2019-05-26T20:58:06.793Z,61.24
2019-05-26T21:00:38.817Z,61.36
2019-05-26T21:03:10.622Z,61.61
2019-05-26T21:05:42.747Z,62.28
2019-05-26T21:08:15.269Z,62.53
2019-05-26T21:10:47.674Z,62.99
2019-05-26T21:13:20.888Z,63.36
2019-05-26T21:15:53.973Z,63.79
2019-05-26T21:18:26.641Z,64.31
2019-05-26T21:20:59.033Z,64.90
2019-05-26T21:23:32.001Z,64.97
2019-05-26T21:26:04.956Z,65.05
2019-05-26T21:28:36.659Z,65.07
2019-05-26T21:31:10.959Z,64.92
2019-05-26T21:33:43.449Z,65.05
2019-05-26T21:36:15.303Z,65.12
2019-05-26T21:38:47.129Z,65.43
2019-05-26T21:41:19.245Z,66.60
2019-05-26T21:43:51.113Z,68.13
2019-05-26T21:46:22.824Z,68.88
2019-05-26T21:48:54.345Z,68.52
2019-05-26T21:51:25.916Z,68.52
2019-05-26T21:53:57.595Z,68.16
2019-05-26T21:56:29.252Z,67.72
2019-05-26T21:59:02.219Z,67.64
2019-05-26T22:01:33.890Z,67.82
2019-05-26T22:04:06.830Z,67.93
2019-05-26T22:06:39.228Z,67.56
2019-05-26T22:09:11.086Z,67.71
2019-05-26T22:11:44.082Z,67.29
2019-05-26T22:14:19.474Z,67.21
2019-05-26T22:16:52.137Z,67.25
2019-05-26T22:19:24.379Z,67.67
2019-05-26T22:21:56.778Z,67.55
2019-05-26T22:24:30.730Z,67.60
2019-05-26T22:27:03.510Z,67.85
2019-05-26T22:29:35.210Z,67.93
2019-05-26T22:32:06.792Z,68.09
2019-05-26T22:34:38.610Z,68.08
2019-05-26T22:37:10.191Z,68.14
2019-05-26T22:39:42.994Z,68.40
2019-05-26T22:42:14.812Z,68.91
2019-05-26T22:44:46.822Z,69.14
2019-05-26T22:47:18.615Z,69.19
2019-05-26T22:49:50.239Z,69.21
2019-05-26T22:52:22.049Z,69.47
2019-05-26T22:54:53.755Z,69.59
2019-05-26T22:57:25.981Z,69.92
2019-05-26T22:59:58.182Z,70.26
2019-05-26T23:02:30.756Z,70.74
2019-05-26T23:05:02.517Z,71.05
2019-05-26T23:07:35.278Z,71.64
2019-05-26T23:10:10.622Z,71.66
2019-05-26T23:12:42.205Z,71.13
2019-05-26T23:15:14.703Z,71.01
2019-05-26T23:17:46.292Z,70.80
2019-05-26T23:20:19.439Z,70.43
2019-05-26T23:22:53.166Z,70.16
2019-05-26T23:25:25.596Z,71.08
2019-05-26T23:27:58.687Z,70.93
2019-05-26T23:30:30.479Z,71.65
2019-05-26T23:33:02.299Z,71.65
2019-05-26T23:35:34.154Z,71.00
2019-05-26T23:38:06.259Z,70.79
2019-05-26T23:40:38.004Z,71.03
2019-05-26T23:43:09.809Z,71.15
2019-05-26T23:45:41.499Z,71.22
2019-05-26T23:48:13.280Z,71.21
2019-05-26T23:50:45.860Z,71.55
2019-05-26T23:53:17.555Z,71.74
2019-05-26T23:55:50.501Z,72.34
2019-05-26T23:58:22.316Z,72.54
